sensor_id;sensor_type;location;lat;lon;timestamp;P1;durP1;ratioP1;P2;durP2;ratioP2
80557;SDS011;69901;43.524;-5.636;2023-07-13T00:02:14;7.22;;;1.58;;
80557;SDS011;69901;43.524;-5.636;2023-07-13T00:04:40;8.20;;;2.00;;
80557;SDS011;69901;43.524;-5.636;2023-07-13T00:07:06;7.93;;;1.53;;
80557;SDS011;69901;43.524;-5.636;2023-07-13T00:09:32;9.75;;;1.92;;
80557;SDS011;69901;43.524;-5.636;2023-07-13T00:11:59;5.80;;;1.50;;
80557;SDS011;69901;43.524;-5.636;2023-07-13T00:14:26;7.68;;;1.60;;
80557;SDS011;69901;43.524;-5.636;2023-07-13T00:16:53;7.60;;;1.70;;
80557;SDS011;69901;43.524;-5.636;2023-07-13T00:19:19;11.38;;;2.03;;
80557;SDS011;69901;43.524;-5.636;2023-07-13T00:21:45;10.27;;;2.30;;
80557;SDS011;69901;43.524;-5.636;2023-07-13T00:24:12;6.70;;;2.25;;
80557;SDS011;69901;43.524;-5.636;2023-07-13T00:26:48;9.27;;;2.70;;
80557;SDS011;69901;43.524;-5.636;2023-07-13T00:29:13;8.97;;;2.50;;
80557;SDS011;69901;43.524;-5.636;2023-07-13T00:31:39;8.87;;;2.60;;
80557;SDS011;69901;43.524;-5.636;2023-07-13T00:34:05;10.13;;;2.10;;
80557;SDS011;69901;43.524;-5.636;2023-07-13T00:36:30;7.93;;;2.47;;
80557;SDS011;69901;43.524;-5.636;2023-07-13T00:38:57;12.17;;;2.37;;
80557;SDS011;69901;43.524;-5.636;2023-07-13T00:41:22;5.78;;;1.75;;
80557;SDS011;69901;43.524;-5.636;2023-07-13T00:43:48;10.00;;;1.97;;
80557;SDS011;69901;43.524;-5.636;2023-07-13T00:46:21;7.53;;;1.63;;
80557;SDS011;69901;43.524;-5.636;2023-07-13T00:48:49;10.20;;;2.22;;
80557;SDS011;69901;43.524;-5.636;2023-07-13T00:51:27;9.05;;;2.70;;
80557;SDS011;69901;43.524;-5.636;2023-07-13T00:53:58;12.15;;;2.22;;
80557;SDS011;69901;43.524;-5.636;2023-07-13T00:56:28;7.50;;;2.10;;
80557;SDS011;69901;43.524;-5.636;2023-07-13T00:58:54;6.57;;;1.57;;
80557;SDS011;69901;43.524;-5.636;2023-07-13T01:01:20;6.45;;;1.70;;
80557;SDS011;69901;43.524;-5.636;2023-07-13T01:03:46;6.23;;;1.50;;
80557;SDS011;69901;43.524;-5.636;2023-07-13T01:06:11;7.03;;;1.30;;
80557;SDS011;69901;43.524;-5.636;2023-07-13T01:08:38;9.40;;;1.70;;
80557;SDS011;69901;43.524;-5.636;2023-07-13T01:11:05;7.53;;;1.60;;
80557;SDS011;69901;43.524;-5.636;2023-07-13T01:13:30;8.30;;;2.22;;
80557;SDS011;69901;43.524;-5.636;2023-07-13T01:15:56;8.43;;;1.97;;
80557;SDS011;69901;43.524;-5.636;2023-07-13T01:18:27;8.25;;;2.00;;
80557;SDS011;69901;43.524;-5.636;2023-07-13T01:20:55;6.72;;;2.22;;
80557;SDS011;69901;43.524;-5.636;2023-07-13T01:23:28;8.23;;;2.00;;
80557;SDS011;69901;43.524;-5.636;2023-07-13T01:25:54;7.70;;;1.70;;
80557;SDS011;69901;43.524;-5.636;2023-07-13T01:28:21;8.68;;;2.10;;
80557;SDS011;69901;43.524;-5.636;2023-07-13T01:30:47;9.70;;;1.88;;
80557;SDS011;69901;43.524;-5.636;2023-07-13T01:33:14;6.47;;;1.80;;
80557;SDS011;69901;43.524;-5.636;2023-07-13T01:35:42;6.68;;;1.40;;
80557;SDS011;69901;43.524;-5.636;2023-07-13T01:38:08;8.85;;;1.77;;
80557;SDS011;69901;43.524;-5.636;2023-07-13T01:40:35;9.27;;;1.92;;
80557;SDS011;69901;43.524;-5.636;2023-07-13T01:43:02;7.28;;;2.30;;
80557;SDS011;69901;43.524;-5.636;2023-07-13T01:45:28;7.47;;;1.90;;
80557;SDS011;69901;43.524;-5.636;2023-07-13T01:47:53;11.95;;;2.22;;
80557;SDS011;69901;43.524;-5.636;2023-07-13T01:50:19;7.93;;;2.00;;
80557;SDS011;69901;43.524;-5.636;2023-07-13T01:52:44;10.07;;;2.13;;
80557;SDS011;69901;43.524;-5.636;2023-07-13T01:55:10;7.07;;;2.20;;
80557;SDS011;69901;43.524;-5.636;2023-07-13T01:57:36;8.70;;;2.30;;
80557;SDS011;69901;43.524;-5.636;2023-07-13T02:00:05;6.97;;;1.77;;
80557;SDS011;69901;43.524;-5.636;2023-07-13T02:02:32;10.47;;;2.43;;
80557;SDS011;69901;43.524;-5.636;2023-07-13T02:04:57;8.52;;;2.15;;
80557;SDS011;69901;43.524;-5.636;2023-07-13T02:07:22;8.67;;;1.77;;
80557;SDS011;69901;43.524;-5.636;2023-07-13T02:09:48;8.17;;;2.13;;
80557;SDS011;69901;43.524;-5.636;2023-07-13T02:12:13;6.18;;;1.67;;
80557;SDS011;69901;43.524;-5.636;2023-07-13T02:14:39;5.93;;;1.37;;
80557;SDS011;69901;43.524;-5.636;2023-07-13T02:17:05;7.20;;;1.63;;
80557;SDS011;69901;43.524;-5.636;2023-07-13T02:19:31;6.70;;;1.92;;
80557;SDS011;69901;43.524;-5.636;2023-07-13T02:21:56;7.45;;;1.85;;
80557;SDS011;69901;43.524;-5.636;2023-07-13T02:24:22;9.33;;;2.07;;
80557;SDS011;69901;43.524;-5.636;2023-07-13T02:26:47;6.77;;;2.10;;
80557;SDS011;69901;43.524;-5.636;2023-07-13T02:29:13;6.07;;;1.60;;
80557;SDS011;69901;43.524;-5.636;2023-07-13T02:31:39;6.65;;;1.70;;
80557;SDS011;69901;43.524;-5.636;2023-07-13T02:34:04;5.90;;;1.60;;
80557;SDS011;69901;43.524;-5.636;2023-07-13T02:36:30;6.90;;;1.50;;
80557;SDS011;69901;43.524;-5.636;2023-07-13T02:38:57;6.70;;;1.63;;
80557;SDS011;69901;43.524;-5.636;2023-07-13T02:41:26;6.72;;;2.30;;
80557;SDS011;69901;43.524;-5.636;2023-07-13T02:43:51;9.20;;;2.08;;
80557;SDS011;69901;43.524;-5.636;2023-07-13T02:46:17;8.13;;;1.60;;
80557;SDS011;69901;43.524;-5.636;2023-07-13T02:48:44;6.03;;;1.70;;
80557;SDS011;69901;43.524;-5.636;2023-07-13T02:51:10;6.77;;;2.07;;
80557;SDS011;69901;43.524;-5.636;2023-07-13T02:53:36;7.90;;;2.13;;
80557;SDS011;69901;43.524;-5.636;2023-07-13T02:56:02;6.32;;;1.83;;
80557;SDS011;69901;43.524;-5.636;2023-07-13T02:58:28;8.25;;;1.95;;
80557;SDS011;69901;43.524;-5.636;2023-07-13T03:00:55;7.03;;;1.60;;
80557;SDS011;69901;43.524;-5.636;2023-07-13T03:03:21;6.65;;;1.65;;
80557;SDS011;69901;43.524;-5.636;2023-07-13T03:05:46;4.53;;;1.10;;
80557;SDS011;69901;43.524;-5.636;2023-07-13T03:08:15;6.18;;;1.67;;
80557;SDS011;69901;43.524;-5.636;2023-07-13T03:10:40;6.15;;;1.35;;
80557;SDS011;69901;43.524;-5.636;2023-07-13T03:13:06;6.67;;;1.27;;
80557;SDS011;69901;43.524;-5.636;2023-07-13T03:15:32;7.77;;;1.90;;
80557;SDS011;69901;43.524;-5.636;2023-07-13T03:17:57;6.23;;;1.80;;
80557;SDS011;69901;43.524;-5.636;2023-07-13T03:20:23;8.95;;;1.52;;
80557;SDS011;69901;43.524;-5.636;2023-07-13T03:22:48;8.50;;;1.67;;
80557;SDS011;69901;43.524;-5.636;2023-07-13T03:25:13;7.77;;;1.77;;
80557;SDS011;69901;43.524;-5.636;2023-07-13T03:27:39;6.90;;;1.77;;
80557;SDS011;69901;43.524;-5.636;2023-07-13T03:30:05;8.30;;;1.97;;
80557;SDS011;69901;43.524;-5.636;2023-07-13T03:32:31;6.97;;;2.20;;
80557;SDS011;69901;43.524;-5.636;2023-07-13T03:34:57;6.57;;;2.03;;
80557;SDS011;69901;43.524;-5.636;2023-07-13T03:37:22;4.53;;;1.30;;
80557;SDS011;69901;43.524;-5.636;2023-07-13T03:39:49;8.10;;;1.63;;
80557;SDS011;69901;43.524;-5.636;2023-07-13T03:42:14;9.07;;;1.98;;
80557;SDS011;69901;43.524;-5.636;2023-07-13T03:44:40;5.83;;;1.50;;
80557;SDS011;69901;43.524;-5.636;2023-07-13T03:47:07;6.20;;;1.40;;
80557;SDS011;69901;43.524;-5.636;2023-07-13T03:49:34;6.40;;;1.20;;
80557;SDS011;69901;43.524;-5.636;2023-07-13T03:52:00;5.27;;;1.53;;
80557;SDS011;69901;43.524;-5.636;2023-07-13T03:54:26;6.28;;;1.50;;
80557;SDS011;69901;43.524;-5.636;2023-07-13T03:56:51;4.82;;;1.30;;
80557;SDS011;69901;43.524;-5.636;2023-07-13T03:59:17;7.20;;;1.43;;
80557;SDS011;69901;43.524;-5.636;2023-07-13T04:01:43;7.93;;;1.43;;
80557;SDS011;69901;43.524;-5.636;2023-07-13T04:04:09;7.15;;;1.35;;
80557;SDS011;69901;43.524;-5.636;2023-07-13T04:06:35;5.73;;;1.90;;
80557;SDS011;69901;43.524;-5.636;2023-07-13T04:09:01;6.83;;;1.37;;
80557;SDS011;69901;43.524;-5.636;2023-07-13T04:11:30;9.15;;;1.83;;
80557;SDS011;69901;43.524;-5.636;2023-07-13T04:13:57;5.15;;;1.73;;
80557;SDS011;69901;43.524;-5.636;2023-07-13T04:16:23;7.35;;;1.60;;
80557;SDS011;69901;43.524;-5.636;2023-07-13T04:18:49;6.35;;;1.50;;
80557;SDS011;69901;43.524;-5.636;2023-07-13T04:21:15;5.00;;;1.70;;
80557;SDS011;69901;43.524;-5.636;2023-07-13T04:23:41;6.90;;;1.25;;
80557;SDS011;69901;43.524;-5.636;2023-07-13T04:26:07;7.50;;;1.60;;
80557;SDS011;69901;43.524;-5.636;2023-07-13T04:28:33;5.87;;;1.37;;
80557;SDS011;69901;43.524;-5.636;2023-07-13T04:30:59;7.72;;;1.45;;
80557;SDS011;69901;43.524;-5.636;2023-07-13T04:33:25;5.40;;;1.27;;
80557;SDS011;69901;43.524;-5.636;2023-07-13T04:35:52;5.95;;;1.63;;
80557;SDS011;69901;43.524;-5.636;2023-07-13T04:38:21;6.35;;;1.60;;
80557;SDS011;69901;43.524;-5.636;2023-07-13T04:41:09;6.50;;;1.42;;
80557;SDS011;69901;43.524;-5.636;2023-07-13T04:43:35;5.53;;;1.53;;
80557;SDS011;69901;43.524;-5.636;2023-07-13T04:46:08;6.18;;;1.60;;
80557;SDS011;69901;43.524;-5.636;2023-07-13T04:48:36;6.05;;;1.23;;
80557;SDS011;69901;43.524;-5.636;2023-07-13T04:51:02;6.00;;;1.23;;
80557;SDS011;69901;43.524;-5.636;2023-07-13T04:53:29;7.07;;;1.50;;
80557;SDS011;69901;43.524;-5.636;2023-07-13T04:55:55;6.55;;;1.70;;
80557;SDS011;69901;43.524;-5.636;2023-07-13T04:58:21;5.15;;;1.30;;
80557;SDS011;69901;43.524;-5.636;2023-07-13T05:00:48;7.97;;;1.77;;
80557;SDS011;69901;43.524;-5.636;2023-07-13T05:03:14;6.30;;;1.60;;
80557;SDS011;69901;43.524;-5.636;2023-07-13T05:05:39;7.75;;;1.27;;
80557;SDS011;69901;43.524;-5.636;2023-07-13T05:08:05;7.10;;;1.47;;
80557;SDS011;69901;43.524;-5.636;2023-07-13T05:10:32;6.78;;;1.13;;
80557;SDS011;69901;43.524;-5.636;2023-07-13T05:12:58;6.93;;;0.97;;
80557;SDS011;69901;43.524;-5.636;2023-07-13T05:15:23;7.10;;;1.70;;
80557;SDS011;69901;43.524;-5.636;2023-07-13T05:17:50;7.87;;;1.23;;
80557;SDS011;69901;43.524;-5.636;2023-07-13T05:20:16;4.35;;;1.10;;
80557;SDS011;69901;43.524;-5.636;2023-07-13T05:22:43;5.32;;;1.23;;
80557;SDS011;69901;43.524;-5.636;2023-07-13T05:25:08;6.40;;;1.30;;
80557;SDS011;69901;43.524;-5.636;2023-07-13T05:27:34;7.30;;;1.63;;
80557;SDS011;69901;43.524;-5.636;2023-07-13T05:30:02;7.43;;;0.93;;
80557;SDS011;69901;43.524;-5.636;2023-07-13T05:32:28;7.05;;;1.20;;
80557;SDS011;69901;43.524;-5.636;2023-07-13T05:34:54;7.63;;;1.92;;
80557;SDS011;69901;43.524;-5.636;2023-07-13T05:37:19;8.33;;;1.70;;
80557;SDS011;69901;43.524;-5.636;2023-07-13T05:39:45;7.87;;;1.10;;
80557;SDS011;69901;43.524;-5.636;2023-07-13T05:42:10;4.40;;;1.20;;
80557;SDS011;69901;43.524;-5.636;2023-07-13T05:44:36;4.27;;;1.30;;
80557;SDS011;69901;43.524;-5.636;2023-07-13T05:47:01;5.00;;;1.17;;
80557;SDS011;69901;43.524;-5.636;2023-07-13T05:49:27;6.53;;;1.27;;
80557;SDS011;69901;43.524;-5.636;2023-07-13T05:51:55;10.13;;;2.17;;
80557;SDS011;69901;43.524;-5.636;2023-07-13T05:54:21;8.90;;;2.10;;
80557;SDS011;69901;43.524;-5.636;2023-07-13T05:56:46;7.07;;;1.70;;
80557;SDS011;69901;43.524;-5.636;2023-07-13T05:59:12;8.13;;;1.40;;
80557;SDS011;69901;43.524;-5.636;2023-07-13T06:01:37;8.63;;;1.87;;
80557;SDS011;69901;43.524;-5.636;2023-07-13T06:04:03;7.97;;;1.87;;
80557;SDS011;69901;43.524;-5.636;2023-07-13T06:06:28;7.75;;;1.50;;
80557;SDS011;69901;43.524;-5.636;2023-07-13T06:08:54;6.47;;;1.20;;
80557;SDS011;69901;43.524;-5.636;2023-07-13T06:11:20;8.63;;;1.53;;
80557;SDS011;69901;43.524;-5.636;2023-07-13T06:13:48;8.45;;;1.50;;
80557;SDS011;69901;43.524;-5.636;2023-07-13T06:16:14;7.85;;;1.58;;
80557;SDS011;69901;43.524;-5.636;2023-07-13T06:18:40;6.75;;;2.15;;
80557;SDS011;69901;43.524;-5.636;2023-07-13T06:21:09;8.70;;;1.10;;
80557;SDS011;69901;43.524;-5.636;2023-07-13T06:23:39;6.57;;;1.20;;
80557;SDS011;69901;43.524;-5.636;2023-07-13T06:26:05;6.67;;;1.67;;
80557;SDS011;69901;43.524;-5.636;2023-07-13T06:28:31;5.15;;;1.27;;
80557;SDS011;69901;43.524;-5.636;2023-07-13T06:30:58;5.57;;;1.33;;
80557;SDS011;69901;43.524;-5.636;2023-07-13T06:33:25;6.80;;;1.13;;
80557;SDS011;69901;43.524;-5.636;2023-07-13T06:35:51;7.22;;;1.30;;
80557;SDS011;69901;43.524;-5.636;2023-07-13T06:38:17;6.40;;;1.60;;
80557;SDS011;69901;43.524;-5.636;2023-07-13T06:40:42;5.40;;;1.40;;
80557;SDS011;69901;43.524;-5.636;2023-07-13T06:43:08;9.13;;;1.30;;
80557;SDS011;69901;43.524;-5.636;2023-07-13T06:45:40;4.67;;;1.20;;
80557;SDS011;69901;43.524;-5.636;2023-07-13T06:48:07;5.32;;;1.55;;
80557;SDS011;69901;43.524;-5.636;2023-07-13T06:50:33;6.23;;;1.17;;
80557;SDS011;69901;43.524;-5.636;2023-07-13T06:52:59;8.13;;;1.40;;
80557;SDS011;69901;43.524;-5.636;2023-07-13T06:55:25;5.33;;;1.17;;
80557;SDS011;69901;43.524;-5.636;2023-07-13T06:57:51;6.50;;;1.23;;
80557;SDS011;69901;43.524;-5.636;2023-07-13T07:00:16;7.07;;;1.63;;
80557;SDS011;69901;43.524;-5.636;2023-07-13T07:02:42;6.40;;;1.23;;
80557;SDS011;69901;43.524;-5.636;2023-07-13T07:05:08;9.23;;;1.70;;
80557;SDS011;69901;43.524;-5.636;2023-07-13T07:07:33;6.00;;;1.30;;
80557;SDS011;69901;43.524;-5.636;2023-07-13T07:09:58;6.23;;;1.60;;
80557;SDS011;69901;43.524;-5.636;2023-07-13T07:12:24;7.40;;;1.40;;
80557;SDS011;69901;43.524;-5.636;2023-07-13T07:14:50;8.43;;;1.38;;
80557;SDS011;69901;43.524;-5.636;2023-07-13T07:17:15;6.80;;;1.17;;
80557;SDS011;69901;43.524;-5.636;2023-07-13T07:19:41;5.63;;;0.80;;
80557;SDS011;69901;43.524;-5.636;2023-07-13T07:22:06;6.57;;;1.13;;
80557;SDS011;69901;43.524;-5.636;2023-07-13T07:24:32;6.70;;;1.10;;
80557;SDS011;69901;43.524;-5.636;2023-07-13T07:26:57;5.97;;;1.00;;
80557;SDS011;69901;43.524;-5.636;2023-07-13T07:29:23;5.82;;;1.40;;
80557;SDS011;69901;43.524;-5.636;2023-07-13T07:31:53;5.82;;;1.13;;
80557;SDS011;69901;43.524;-5.636;2023-07-13T07:34:18;5.67;;;1.37;;
80557;SDS011;69901;43.524;-5.636;2023-07-13T07:36:44;5.40;;;1.27;;
80557;SDS011;69901;43.524;-5.636;2023-07-13T07:39:10;5.68;;;1.52;;
80557;SDS011;69901;43.524;-5.636;2023-07-13T07:41:36;4.80;;;0.87;;
80557;SDS011;69901;43.524;-5.636;2023-07-13T07:44:02;8.65;;;1.35;;
80557;SDS011;69901;43.524;-5.636;2023-07-13T07:46:28;5.55;;;1.30;;
80557;SDS011;69901;43.524;-5.636;2023-07-13T07:48:54;4.93;;;1.23;;
80557;SDS011;69901;43.524;-5.636;2023-07-13T07:51:30;5.20;;;1.08;;
80557;SDS011;69901;43.524;-5.636;2023-07-13T07:53:58;5.40;;;1.65;;
80557;SDS011;69901;43.524;-5.636;2023-07-13T07:56:24;5.93;;;1.65;;
80557;SDS011;69901;43.524;-5.636;2023-07-13T07:58:50;5.80;;;1.17;;
80557;SDS011;69901;43.524;-5.636;2023-07-13T08:01:15;5.63;;;1.30;;
80557;SDS011;69901;43.524;-5.636;2023-07-13T08:03:41;5.25;;;1.38;;
80557;SDS011;69901;43.524;-5.636;2023-07-13T08:06:06;6.27;;;0.93;;
80557;SDS011;69901;43.524;-5.636;2023-07-13T08:08:32;5.50;;;0.97;;
80557;SDS011;69901;43.524;-5.636;2023-07-13T08:11:02;6.10;;;0.80;;
80557;SDS011;69901;43.524;-5.636;2023-07-13T08:13:29;3.88;;;0.80;;
80557;SDS011;69901;43.524;-5.636;2023-07-13T08:15:54;5.10;;;0.93;;
80557;SDS011;69901;43.524;-5.636;2023-07-13T08:18:20;5.03;;;1.23;;
80557;SDS011;69901;43.524;-5.636;2023-07-13T08:20:45;5.35;;;0.98;;
80557;SDS011;69901;43.524;-5.636;2023-07-13T08:23:11;4.03;;;0.90;;
80557;SDS011;69901;43.524;-5.636;2023-07-13T08:25:37;4.93;;;1.20;;
80557;SDS011;69901;43.524;-5.636;2023-07-13T08:28:02;6.03;;;1.00;;
80557;SDS011;69901;43.524;-5.636;2023-07-13T08:30:28;3.97;;;1.00;;
80557;SDS011;69901;43.524;-5.636;2023-07-13T08:32:54;4.80;;;0.90;;
80557;SDS011;69901;43.524;-5.636;2023-07-13T08:35:20;4.38;;;0.60;;
80557;SDS011;69901;43.524;-5.636;2023-07-13T08:37:45;5.30;;;0.90;;
80557;SDS011;69901;43.524;-5.636;2023-07-13T08:40:11;4.97;;;1.07;;
80557;SDS011;69901;43.524;-5.636;2023-07-13T08:42:43;4.88;;;1.27;;
80557;SDS011;69901;43.524;-5.636;2023-07-13T08:47:37;2.97;;;0.90;;
80557;SDS011;69901;43.524;-5.636;2023-07-13T08:50:09;5.60;;;1.20;;
80557;SDS011;69901;43.524;-5.636;2023-07-13T08:52:39;4.93;;;1.30;;
80557;SDS011;69901;43.524;-5.636;2023-07-13T08:55:39;4.13;;;0.93;;
80557;SDS011;69901;43.524;-5.636;2023-07-13T08:58:09;5.10;;;1.40;;
80557;SDS011;69901;43.524;-5.636;2023-07-13T09:03:42;5.93;;;1.45;;
80557;SDS011;69901;43.524;-5.636;2023-07-13T09:06:18;6.40;;;1.40;;
80557;SDS011;69901;43.524;-5.636;2023-07-13T09:09:06;7.37;;;1.57;;
80557;SDS011;69901;43.524;-5.636;2023-07-13T09:11:47;6.43;;;2.22;;
80557;SDS011;69901;43.524;-5.636;2023-07-13T09:17:05;6.53;;;1.70;;
80557;SDS011;69901;43.524;-5.636;2023-07-13T09:19:36;5.35;;;1.42;;
80557;SDS011;69901;43.524;-5.636;2023-07-13T09:22:02;5.30;;;1.00;;
80557;SDS011;69901;43.524;-5.636;2023-07-13T09:24:36;5.30;;;1.30;;
80557;SDS011;69901;43.524;-5.636;2023-07-13T09:27:01;8.25;;;1.65;;
80557;SDS011;69901;43.524;-5.636;2023-07-13T09:29:37;3.13;;;0.70;;
80557;SDS011;69901;43.524;-5.636;2023-07-13T09:32:09;5.75;;;1.20;;
80557;SDS011;69901;43.524;-5.636;2023-07-13T09:34:38;5.63;;;1.60;;
80557;SDS011;69901;43.524;-5.636;2023-07-13T09:37:03;5.57;;;1.43;;
80557;SDS011;69901;43.524;-5.636;2023-07-13T09:39:31;6.38;;;1.73;;
80557;SDS011;69901;43.524;-5.636;2023-07-13T09:42:16;5.95;;;1.70;;
80557;SDS011;69901;43.524;-5.636;2023-07-13T09:47:15;7.03;;;2.45;;
80557;SDS011;69901;43.524;-5.636;2023-07-13T09:49:43;8.77;;;2.50;;
80557;SDS011;69901;43.524;-5.636;2023-07-13T09:52:14;4.78;;;1.23;;
80557;SDS011;69901;43.524;-5.636;2023-07-13T09:54:43;7.63;;;1.85;;
80557;SDS011;69901;43.524;-5.636;2023-07-13T09:57:15;4.60;;;1.40;;
80557;SDS011;69901;43.524;-5.636;2023-07-13T09:59:45;5.25;;;1.30;;
80557;SDS011;69901;43.524;-5.636;2023-07-13T10:02:29;5.43;;;1.53;;
80557;SDS011;69901;43.524;-5.636;2023-07-13T10:04:55;5.25;;;1.05;;
80557;SDS011;69901;43.524;-5.636;2023-07-13T10:07:23;4.80;;;1.05;;
80557;SDS011;69901;43.524;-5.636;2023-07-13T10:09:53;5.20;;;0.98;;
80557;SDS011;69901;43.524;-5.636;2023-07-13T10:12:20;5.93;;;1.77;;
80557;SDS011;69901;43.524;-5.636;2023-07-13T10:14:48;4.17;;;1.10;;
80557;SDS011;69901;43.524;-5.636;2023-07-13T10:17:16;4.32;;;1.17;;
80557;SDS011;69901;43.524;-5.636;2023-07-13T10:19:50;5.78;;;1.25;;
80557;SDS011;69901;43.524;-5.636;2023-07-13T10:22:24;5.90;;;1.05;;
80557;SDS011;69901;43.524;-5.636;2023-07-13T10:24:55;4.27;;;0.90;;
80557;SDS011;69901;43.524;-5.636;2023-07-13T10:27:28;3.60;;;0.88;;
80557;SDS011;69901;43.524;-5.636;2023-07-13T10:30:09;4.15;;;0.88;;
80557;SDS011;69901;43.524;-5.636;2023-07-13T10:33:08;4.53;;;0.70;;
80557;SDS011;69901;43.524;-5.636;2023-07-13T10:35:41;4.93;;;1.23;;
80557;SDS011;69901;43.524;-5.636;2023-07-13T10:38:27;4.67;;;1.30;;
80557;SDS011;69901;43.524;-5.636;2023-07-13T10:41:03;3.75;;;0.93;;
80557;SDS011;69901;43.524;-5.636;2023-07-13T10:43:35;5.20;;;1.50;;
80557;SDS011;69901;43.524;-5.636;2023-07-13T10:46:05;4.13;;;1.08;;
80557;SDS011;69901;43.524;-5.636;2023-07-13T10:48:34;4.57;;;0.98;;
80557;SDS011;69901;43.524;-5.636;2023-07-13T10:51:02;3.83;;;0.90;;
80557;SDS011;69901;43.524;-5.636;2023-07-13T10:53:33;5.28;;;0.82;;
80557;SDS011;69901;43.524;-5.636;2023-07-13T10:56:01;4.40;;;0.85;;
80557;SDS011;69901;43.524;-5.636;2023-07-13T10:58:34;5.05;;;0.98;;
80557;SDS011;69901;43.524;-5.636;2023-07-13T11:03:46;4.80;;;0.93;;
80557;SDS011;69901;43.524;-5.636;2023-07-13T11:14:00;5.07;;;0.68;;
80557;SDS011;69901;43.524;-5.636;2023-07-13T11:16:36;2.72;;;0.55;;
80557;SDS011;69901;43.524;-5.636;2023-07-13T11:24:29;4.07;;;0.90;;
80557;SDS011;69901;43.524;-5.636;2023-07-13T11:27:49;4.57;;;0.65;;
80557;SDS011;69901;43.524;-5.636;2023-07-13T11:30:13;6.88;;;0.90;;
80557;SDS011;69901;43.524;-5.636;2023-07-13T11:32:43;6.13;;;1.35;;
80557;SDS011;69901;43.524;-5.636;2023-07-13T11:35:12;5.37;;;1.00;;
80557;SDS011;69901;43.524;-5.636;2023-07-13T11:37:42;5.85;;;1.15;;
80557;SDS011;69901;43.524;-5.636;2023-07-13T11:40:15;4.70;;;0.70;;
80557;SDS011;69901;43.524;-5.636;2023-07-13T11:42:41;4.00;;;0.70;;
80557;SDS011;69901;43.524;-5.636;2023-07-13T11:45:19;4.75;;;1.00;;
80557;SDS011;69901;43.524;-5.636;2023-07-13T11:47:48;5.07;;;1.20;;
80557;SDS011;69901;43.524;-5.636;2023-07-13T11:50:19;5.25;;;1.10;;
80557;SDS011;69901;43.524;-5.636;2023-07-13T11:52:46;3.30;;;1.00;;
80557;SDS011;69901;43.524;-5.636;2023-07-13T11:55:16;3.25;;;0.73;;
80557;SDS011;69901;43.524;-5.636;2023-07-13T11:57:49;3.92;;;0.70;;
80557;SDS011;69901;43.524;-5.636;2023-07-13T12:00:27;4.23;;;0.97;;
80557;SDS011;69901;43.524;-5.636;2023-07-13T12:02:56;5.38;;;0.80;;
80557;SDS011;69901;43.524;-5.636;2023-07-13T12:05:24;2.63;;;0.63;;
80557;SDS011;69901;43.524;-5.636;2023-07-13T12:07:50;5.27;;;1.30;;
80557;SDS011;69901;43.524;-5.636;2023-07-13T12:15:20;2.88;;;0.77;;
80557;SDS011;69901;43.524;-5.636;2023-07-13T12:17:49;6.45;;;1.00;;
80557;SDS011;69901;43.524;-5.636;2023-07-13T12:20:23;4.70;;;0.77;;
80557;SDS011;69901;43.524;-5.636;2023-07-13T12:22:51;4.20;;;0.90;;
80557;SDS011;69901;43.524;-5.636;2023-07-13T12:25:17;6.13;;;1.30;;
80557;SDS011;69901;43.524;-5.636;2023-07-13T12:27:47;4.50;;;0.95;;
80557;SDS011;69901;43.524;-5.636;2023-07-13T12:32:59;5.15;;;0.80;;
80557;SDS011;69901;43.524;-5.636;2023-07-13T12:35:28;5.20;;;0.63;;
80557;SDS011;69901;43.524;-5.636;2023-07-13T12:38:00;3.08;;;0.70;;
80557;SDS011;69901;43.524;-5.636;2023-07-13T12:40:32;3.93;;;0.90;;
80557;SDS011;69901;43.524;-5.636;2023-07-13T12:42:59;4.75;;;0.60;;
80557;SDS011;69901;43.524;-5.636;2023-07-13T12:45:29;3.85;;;0.93;;
80557;SDS011;69901;43.524;-5.636;2023-07-13T12:47:56;4.97;;;0.70;;
80557;SDS011;69901;43.524;-5.636;2023-07-13T12:50:47;3.65;;;0.90;;
80557;SDS011;69901;43.524;-5.636;2023-07-13T12:53:13;5.20;;;1.00;;
80557;SDS011;69901;43.524;-5.636;2023-07-13T12:55:45;3.83;;;0.90;;
80557;SDS011;69901;43.524;-5.636;2023-07-13T12:58:22;4.60;;;1.00;;
80557;SDS011;69901;43.524;-5.636;2023-07-13T13:00:56;4.05;;;1.00;;
80557;SDS011;69901;43.524;-5.636;2023-07-13T13:03:33;5.22;;;1.15;;
80557;SDS011;69901;43.524;-5.636;2023-07-13T13:06:06;4.13;;;1.23;;
80557;SDS011;69901;43.524;-5.636;2023-07-13T13:08:47;5.45;;;1.10;;
80557;SDS011;69901;43.524;-5.636;2023-07-13T13:11:14;4.57;;;1.05;;
80557;SDS011;69901;43.524;-5.636;2023-07-13T13:13:41;5.78;;;1.00;;
80557;SDS011;69901;43.524;-5.636;2023-07-13T13:21:42;4.03;;;1.13;;
80557;SDS011;69901;43.524;-5.636;2023-07-13T13:24:10;4.88;;;1.23;;
80557;SDS011;69901;43.524;-5.636;2023-07-13T13:26:40;7.80;;;1.33;;
80557;SDS011;69901;43.524;-5.636;2023-07-13T13:29:11;5.25;;;1.30;;
80557;SDS011;69901;43.524;-5.636;2023-07-13T13:31:38;5.83;;;1.10;;
80557;SDS011;69901;43.524;-5.636;2023-07-13T13:34:04;5.40;;;0.88;;
80557;SDS011;69901;43.524;-5.636;2023-07-13T13:36:33;5.35;;;1.20;;
80557;SDS011;69901;43.524;-5.636;2023-07-13T13:38:59;5.00;;;0.90;;
80557;SDS011;69901;43.524;-5.636;2023-07-13T13:41:26;4.82;;;1.27;;
80557;SDS011;69901;43.524;-5.636;2023-07-13T13:43:52;4.67;;;0.97;;
80557;SDS011;69901;43.524;-5.636;2023-07-13T13:46:20;4.87;;;1.00;;
80557;SDS011;69901;43.524;-5.636;2023-07-13T13:48:50;7.00;;;1.02;;
80557;SDS011;69901;43.524;-5.636;2023-07-13T13:51:17;5.22;;;1.10;;
80557;SDS011;69901;43.524;-5.636;2023-07-13T13:53:45;5.73;;;1.23;;
80557;SDS011;69901;43.524;-5.636;2023-07-13T13:56:11;3.28;;;0.90;;
80557;SDS011;69901;43.524;-5.636;2023-07-13T13:58:38;6.18;;;1.27;;
80557;SDS011;69901;43.524;-5.636;2023-07-13T14:01:04;6.25;;;1.05;;
80557;SDS011;69901;43.524;-5.636;2023-07-13T14:03:33;4.13;;;0.90;;
80557;SDS011;69901;43.524;-5.636;2023-07-13T14:05:59;5.27;;;1.63;;
80557;SDS011;69901;43.524;-5.636;2023-07-13T14:08:25;4.90;;;1.17;;
80557;SDS011;69901;43.524;-5.636;2023-07-13T14:10:51;4.05;;;0.70;;
80557;SDS011;69901;43.524;-5.636;2023-07-13T14:13:27;4.70;;;1.10;;
80557;SDS011;69901;43.524;-5.636;2023-07-13T14:16:09;3.93;;;0.97;;
80557;SDS011;69901;43.524;-5.636;2023-07-13T14:18:37;6.40;;;0.80;;
80557;SDS011;69901;43.524;-5.636;2023-07-13T14:21:03;5.05;;;1.30;;
80557;SDS011;69901;43.524;-5.636;2023-07-13T14:23:36;4.78;;;1.38;;
80557;SDS011;69901;43.524;-5.636;2023-07-13T14:26:01;5.90;;;1.10;;
80557;SDS011;69901;43.524;-5.636;2023-07-13T14:28:27;6.65;;;1.65;;
80557;SDS011;69901;43.524;-5.636;2023-07-13T14:30:53;4.13;;;1.37;;
80557;SDS011;69901;43.524;-5.636;2023-07-13T14:33:22;5.45;;;1.13;;
80557;SDS011;69901;43.524;-5.636;2023-07-13T14:35:48;5.73;;;1.47;;
80557;SDS011;69901;43.524;-5.636;2023-07-13T14:38:17;5.97;;;1.13;;
80557;SDS011;69901;43.524;-5.636;2023-07-13T14:40:44;5.10;;;1.10;;
80557;SDS011;69901;43.524;-5.636;2023-07-13T14:43:11;5.10;;;0.80;;
80557;SDS011;69901;43.524;-5.636;2023-07-13T14:45:39;4.57;;;1.30;;
80557;SDS011;69901;43.524;-5.636;2023-07-13T14:48:25;6.63;;;1.37;;
80557;SDS011;69901;43.524;-5.636;2023-07-13T14:50:58;5.47;;;1.30;;
80557;SDS011;69901;43.524;-5.636;2023-07-13T14:53:26;6.75;;;1.33;;
80557;SDS011;69901;43.524;-5.636;2023-07-13T14:55:55;3.75;;;0.85;;
80557;SDS011;69901;43.524;-5.636;2023-07-13T14:58:21;4.73;;;1.10;;
80557;SDS011;69901;43.524;-5.636;2023-07-13T15:00:46;5.97;;;1.20;;
80557;SDS011;69901;43.524;-5.636;2023-07-13T15:03:21;4.45;;;1.17;;
80557;SDS011;69901;43.524;-5.636;2023-07-13T15:05:49;4.15;;;1.27;;
80557;SDS011;69901;43.524;-5.636;2023-07-13T15:08:17;6.30;;;1.45;;
80557;SDS011;69901;43.524;-5.636;2023-07-13T15:10:43;5.25;;;1.55;;
80557;SDS011;69901;43.524;-5.636;2023-07-13T15:13:18;5.37;;;1.60;;
80557;SDS011;69901;43.524;-5.636;2023-07-13T15:15:49;6.22;;;1.67;;
80557;SDS011;69901;43.524;-5.636;2023-07-13T15:18:17;5.57;;;1.47;;
80557;SDS011;69901;43.524;-5.636;2023-07-13T15:20:46;4.45;;;1.27;;